createdAt,value
2019-05-20T00:04:48.622Z,15.21
2019-05-20T00:09:56.083Z,14.98
2019-05-20T00:15:03.477Z,15.25
2019-05-20T00:20:11.844Z,15.41
2019-05-20T00:25:19.218Z,15.07
2019-05-20T00:30:26.735Z,15.24
2019-05-20T00:35:34.053Z,14.96
2019-05-20T00:40:41.527Z,15.12
2019-05-20T00:45:49.916Z,15.35
2019-05-20T00:50:57.495Z,15.55
2019-05-20T00:56:05.334Z,15.42
2019-05-20T01:01:12.734Z,15.09
2019-05-20T01:06:20.139Z,15.44
2019-05-20T01:11:27.549Z,15.08
2019-05-20T01:16:34.949Z,15.23
2019-05-20T01:21:42.366Z,15.49
2019-05-20T01:26:49.779Z,15.16
2019-05-20T01:31:57.225Z,15.29
2019-05-20T01:37:04.598Z,15.43
2019-05-20T01:42:11.962Z,15.57
2019-05-20T01:47:19.335Z,15.64
2019-05-20T01:52:26.802Z,15.27
2019-05-20T01:57:34.089Z,15.20
2019-05-20T02:02:41.521Z,15.23
2019-05-20T02:07:48.927Z,15.41
2019-05-20T02:12:56.352Z,15.42
2019-05-20T02:18:03.790Z,15.19
2019-05-20T02:23:15.620Z,15.19
2019-05-20T02:28:23.078Z,15.08
2019-05-20T02:33:47.837Z,15.07
2019-05-20T02:38:39.519Z,14.90
2019-05-20T02:43:46.931Z,14.94
2019-05-20T02:48:54.426Z,14.75
2019-05-20T02:54:03.196Z,14.24
2019-05-20T02:59:10.532Z,14.08
2019-05-20T03:04:17.974Z,13.97
2019-05-20T03:09:25.369Z,14.27
2019-05-20T03:14:32.803Z,14.25
2019-05-20T03:19:40.201Z,14.32
2019-05-20T03:24:47.506Z,14.35
2019-05-20T03:29:54.936Z,14.23
2019-05-20T03:35:02.457Z,13.69
2019-05-20T03:40:10.957Z,13.71
2019-05-20T03:45:18.388Z,13.79
2019-05-20T03:50:25.754Z,13.45
2019-05-20T03:55:33.116Z,13.55
2019-05-20T04:00:46.666Z,13.35
2019-05-20T04:05:53.989Z,13.24
2019-05-20T04:11:01.301Z,13.77
2019-05-20T04:16:08.787Z,13.89
2019-05-20T04:21:16.223Z,13.72
2019-05-20T04:26:23.607Z,13.91
2019-05-20T04:31:31.029Z,14.18
2019-05-20T04:36:38.465Z,14.44
2019-05-20T04:41:45.896Z,14.53
2019-05-20T04:46:53.541Z,14.75
2019-05-20T04:52:00.909Z,14.71
2019-05-20T04:57:09.181Z,14.79
2019-05-20T05:02:16.602Z,14.90
2019-05-20T05:07:25.131Z,14.97
2019-05-20T05:12:32.546Z,15.07
2019-05-20T05:17:40.194Z,15.06
2019-05-20T05:22:47.587Z,15.28
2019-05-20T05:27:55.073Z,15.40
2019-05-20T05:33:02.463Z,15.52
2019-05-20T05:38:10.272Z,15.34
2019-05-20T05:43:17.548Z,15.56
2019-05-20T05:48:25.033Z,15.77
2019-05-20T05:53:32.493Z,16.14
2019-05-20T05:58:39.888Z,16.45
2019-05-20T06:03:47.311Z,16.72
2019-05-20T06:08:54.630Z,17.02
2019-05-20T06:14:02.018Z,17.24
2019-05-20T06:19:09.349Z,17.34
2019-05-20T06:24:16.751Z,17.31
2019-05-20T06:29:24.159Z,17.18
2019-05-20T06:34:32.343Z,17.11
2019-05-20T06:39:39.784Z,17.19
2019-05-20T06:44:53.163Z,17.38
2019-05-20T06:49:56.197Z,17.62
2019-05-20T06:55:03.789Z,17.82
2019-05-20T07:00:12.417Z,17.84
2019-05-20T07:05:19.890Z,18.11
2019-05-20T07:10:27.239Z,18.24
2019-05-20T07:15:34.656Z,18.39
2019-05-20T07:20:42.077Z,18.65
2019-05-20T07:25:49.482Z,18.86
2019-05-20T07:30:56.839Z,18.98
2019-05-20T07:36:04.242Z,18.97
2019-05-20T07:41:11.560Z,19.12
2019-05-20T07:46:20.322Z,19.32
2019-05-20T07:51:28.736Z,19.48
2019-05-20T07:56:40.718Z,19.45
2019-05-20T08:01:48.048Z,19.57
2019-05-20T08:06:55.582Z,19.65
2019-05-20T08:12:03.050Z,19.71
2019-05-20T08:17:10.652Z,19.80
2019-05-20T08:22:18.079Z,19.89
2019-05-20T08:27:25.490Z,19.97
2019-05-20T08:32:32.959Z,19.81
2019-05-20T08:37:45.271Z,19.84
2019-05-20T08:42:49.424Z,19.77
2019-05-20T08:47:56.744Z,19.78
2019-05-20T08:53:04.193Z,19.80
2019-05-20T08:58:11.632Z,19.88
2019-05-20T09:03:19.015Z,20.00
2019-05-20T09:08:26.425Z,19.93
2019-05-20T09:13:33.791Z,19.88
2019-05-20T09:18:41.209Z,19.79
2019-05-20T09:23:48.585Z,19.79
2019-05-20T09:28:57.108Z,19.80
2019-05-20T09:34:04.703Z,19.79
2019-05-20T09:39:12.206Z,19.78
2019-05-20T09:44:19.628Z,19.83
2019-05-20T09:49:27.087Z,19.89
2019-05-20T09:54:34.498Z,19.95
2019-05-20T09:59:43.638Z,20.09
2019-05-20T10:04:50.964Z,20.23
2019-05-20T10:09:58.279Z,20.32
2019-05-20T10:15:05.996Z,20.33
2019-05-20T10:20:15.236Z,20.38
2019-05-20T10:25:23.184Z,20.19
2019-05-20T10:30:30.625Z,20.00
2019-05-20T10:35:37.978Z,19.91
2019-05-20T10:40:45.671Z,19.72
2019-05-20T10:45:53.997Z,19.75
2019-05-20T10:51:01.412Z,19.66
2019-05-20T10:56:08.859Z,19.52
2019-05-20T11:01:16.219Z,19.40
2019-05-20T11:06:23.543Z,19.33
2019-05-20T11:11:30.979Z,19.24
2019-05-20T11:16:38.206Z,19.15
2019-05-20T11:21:45.538Z,19.01
2019-05-20T11:26:52.977Z,18.92
2019-05-20T11:32:00.381Z,18.99
2019-05-20T11:37:07.754Z,18.95
2019-05-20T11:42:15.148Z,18.85
2019-05-20T11:47:22.513Z,18.81
2019-05-20T11:52:29.897Z,18.76
2019-05-20T11:57:37.312Z,18.82
2019-05-20T12:02:45.734Z,18.85
2019-05-20T12:07:53.055Z,19.05
2019-05-20T12:13:00.433Z,19.88
2019-05-20T12:18:07.642Z,20.21
2019-05-20T12:23:15.013Z,20.05
2019-05-20T12:28:22.346Z,19.84
2019-05-20T12:33:29.701Z,19.55
2019-05-20T12:38:37.355Z,19.43
2019-05-20T12:43:45.353Z,19.43
2019-05-20T12:48:53.360Z,19.49
2019-05-20T12:54:01.008Z,19.50
2019-05-20T12:59:09.024Z,19.44
2019-05-20T13:04:16.543Z,19.41
2019-05-20T13:09:23.906Z,19.43
2019-05-20T13:14:35.639Z,19.51
2019-05-20T13:19:43.286Z,19.53
2019-05-20T13:24:50.545Z,19.32
2019-05-20T13:29:58.105Z,19.35
2019-05-20T13:35:05.675Z,19.37
2019-05-20T13:40:13.991Z,19.44
2019-05-20T13:45:21.883Z,19.32
2019-05-20T13:50:29.247Z,19.20
2019-05-20T13:55:36.564Z,19.06
2019-05-20T14:00:43.910Z,18.85
2019-05-20T14:05:52.739Z,18.72
2019-05-20T14:11:04.224Z,18.59
2019-05-20T14:16:09.387Z,18.49
2019-05-20T14:21:16.894Z,18.46
2019-05-20T14:26:24.733Z,18.29
2019-05-20T14:31:32.404Z,17.92
2019-05-20T14:36:40.529Z,17.36
2019-05-20T14:41:48.441Z,17.04
2019-05-20T14:46:55.868Z,16.94
2019-05-20T14:52:03.579Z,16.74
2019-05-20T14:57:11.306Z,16.49
2019-05-20T15:02:18.835Z,16.74
2019-05-20T15:07:30.695Z,16.89
2019-05-20T15:12:35.459Z,16.96
2019-05-20T15:17:42.933Z,16.99
2019-05-20T15:22:50.253Z,16.84
2019-05-20T15:27:57.916Z,16.68
2019-05-20T15:33:05.394Z,16.65
2019-05-20T15:38:12.808Z,16.76
2019-05-20T15:43:20.127Z,16.83
2019-05-20T15:48:27.475Z,16.75
2019-05-20T15:53:34.816Z,16.88
2019-05-20T15:58:42.288Z,17.02
2019-05-20T16:03:51.489Z,17.10
2019-05-20T16:08:58.996Z,17.13
2019-05-20T16:14:06.434Z,17.31
2019-05-20T16:19:13.850Z,17.60
2019-05-20T16:24:21.536Z,17.70
2019-05-20T16:29:29.260Z,17.38
2019-05-20T16:34:36.827Z,17.50
2019-05-20T16:39:44.440Z,17.48
2019-05-20T16:44:51.955Z,17.44
2019-05-20T16:49:59.610Z,17.31
2019-05-20T16:55:07.193Z,17.39
2019-05-20T17:00:30.961Z,17.46
2019-05-20T17:05:26.446Z,17.51
2019-05-20T17:10:33.963Z,17.49
2019-05-20T17:15:41.809Z,17.54
2019-05-20T17:20:49.102Z,17.57
2019-05-20T17:25:56.604Z,17.56
2019-05-20T17:31:04.053Z,17.55
2019-05-20T17:36:11.593Z,17.53
2019-05-20T17:41:19.006Z,17.46
2019-05-20T17:46:26.704Z,17.38
2019-05-20T17:51:34.126Z,17.29
2019-05-20T17:56:41.406Z,17.20
2019-05-20T18:01:48.948Z,17.13
2019-05-20T18:06:56.654Z,17.10
2019-05-20T18:12:04.091Z,17.06
2019-05-20T18:17:11.635Z,17.00
2019-05-20T18:22:19.412Z,16.95
2019-05-20T18:27:26.955Z,16.93
2019-05-20T18:32:34.634Z,16.88
2019-05-20T18:37:42.301Z,16.82
2019-05-20T18:42:49.993Z,16.71
2019-05-20T18:47:57.778Z,16.42
2019-05-20T18:53:05.443Z,16.42
2019-05-20T18:58:13.048Z,16.17
2019-05-20T19:03:20.946Z,16.20
2019-05-20T19:08:28.674Z,16.26
2019-05-20T19:13:36.111Z,16.37
2019-05-20T19:18:43.522Z,16.28
2019-05-20T19:23:51.092Z,16.09
2019-05-20T19:28:58.516Z,16.05
2019-05-20T19:34:06.003Z,16.12
2019-05-20T19:39:13.591Z,16.07
2019-05-20T19:44:21.184Z,16.05
2019-05-20T19:49:30.826Z,15.76
2019-05-20T19:54:38.299Z,15.54
2019-05-20T19:59:45.646Z,15.64
2019-05-20T20:04:53.070Z,15.73
2019-05-20T20:10:00.478Z,15.75
2019-05-20T20:15:08.640Z,15.75
2019-05-20T20:20:16.928Z,15.64
2019-05-20T20:25:25.364Z,15.64
2019-05-20T20:30:32.638Z,15.51
2019-05-20T20:35:39.969Z,15.53
2019-05-20T20:40:47.374Z,15.45
2019-05-20T20:45:54.802Z,15.06
2019-05-20T20:51:02.233Z,14.77
2019-05-20T20:56:24.138Z,14.87
2019-05-20T21:01:18.837Z,14.83
2019-05-20T21:06:26.228Z,14.74
2019-05-20T21:11:33.635Z,14.86
2019-05-20T21:16:41.054Z,14.82
2019-05-20T21:21:48.457Z,14.73
2019-05-20T21:26:55.867Z,14.83
2019-05-20T21:32:03.345Z,14.73
2019-05-20T21:37:10.809Z,14.71
2019-05-20T21:42:18.157Z,14.33
2019-05-20T21:47:25.549Z,14.49
2019-05-20T21:52:32.969Z,14.35
2019-05-20T21:57:40.291Z,14.46
2019-05-20T22:02:47.582Z,14.26
2019-05-20T22:07:55.057Z,13.84
2019-05-20T22:13:02.511Z,14.11
2019-05-20T22:18:10.097Z,14.26
2019-05-20T22:23:34.919Z,14.22
2019-05-20T22:28:42.479Z,13.83
2019-05-20T22:33:49.919Z,13.52
2019-05-20T22:38:57.362Z,13.53
2019-05-20T22:44:04.863Z,13.44
2019-05-20T22:49:12.326Z,13.74
2019-05-20T22:54:19.764Z,13.81
2019-05-20T22:59:27.233Z,13.66
2019-05-20T23:04:34.751Z,13.75
2019-05-20T23:09:42.165Z,13.44
2019-05-20T23:14:49.578Z,13.08
2019-05-20T23:19:57.033Z,13.29
2019-05-20T23:25:05.678Z,13.06
2019-05-20T23:30:14.019Z,13.29
2019-05-20T23:35:21.402Z,13.35
2019-05-20T23:40:28.817Z,13.42
2019-05-20T23:45:36.319Z,13.45
2019-05-20T23:50:43.741Z,13.43
2019-05-20T23:55:51.369Z,13.29
